Accueil
METAR-TAF:

METAR-TAF

Aéroports :

Sydney, Australie

Aéroport Kingsford-Smith de Sydney

latitude: 33-57S, longitude: 151-11E, altitude: 6 m

Observation

Le bulletin a été fait il y a 15 minutes, à 00:00 UTC
Vent 9 kt de sud
Température 21°C
Humidité 78%
Pression 1023 hPa
Visibilité 10 km ou plus
Nuages épars à une hauteur de 2000 ft

METAR: YSSY 210000Z 18009KT 9999 SCT020 21/17 Q1023

Heure: 10:15 (00:15 UTC)

Prévision

Le bulletin a été fait il y a 1 heure et 11 minutes, à 23:04 UTC
Prévision valable du 21 à 00 UTC au 22 à 06 UTC
Vent 12 kt de sud/sud-est
Visibilité 10 km ou plus
Nuages épars à une hauteur de 2500 ft
A partir de 22 à 0000 UTC
Vent 12 kt de sud-est
Visibilité 10 km ou plus
Nuages épars à une hauteur de 3500 ft

TAF: YSSY 202304Z 2100/2206 15012KT 9999 SCT025 FM220000 14012KT 9999 SCT035

Observations et prévisions météorologiques de plus de 4000 aéroports (messages METAR et TAF).

Les stations disponibles sont représentées par des disques jaunes et rouges sur la carte.

Passer la souris dessus pour voir le nom de la station.

Cliquer dessus pour voir les observations et prévisions météorologiques.

Pour changer de carte: cliquez sur les boutons verts avec une croix noire pour zoomer, sur le bouton vert avec un tiret pour effectuer un zoom arrière, ou sur les flèches vertes pour les cartes adjacentes.


METAR-TAF: